Ryan T — WDC9570 — position and weather

sailwx.info

Track history (hours):
 
Tides and Currents Weather Stations Pressure Air Temp Water Temp Dewpoint Dewpoint Depression Visibility Wind Speed Wind Dir Waves Ship Positions

Ryan T

Owner: SO CAL SHIP SERVICES, INC, TERMINAL ISLAND, CA. More information available from US FCC via Universal Licensing System and Coast Guard Vessel Documentation Center.

Last reported at 2018-Jun-09 03:40 UTC. Time now 2018-Jun-20 15:16 UTC.
Position N 33°44' W 118°16'.
Warning: this ship's position is 11 days out of date.

Length 28 m; draft 2 m.

Type: Ship (hazmat cat B). MMSI: 367104050.

Date/timePositionNaut miles runAvg speedWind from/ knotsBaromVisibWave heightAir tempDewpointWater temp
2018-Jun-09 03:40N 33°44' W 118°16'0 2.0
2018-Jun-09 03:30N 33°44' W 118°16'0 0.0
2018-Jun-07 21:04N 33°44' W 118°16'0 0.0
2018-Jun-07 21:00N 33°44' W 118°16'0 0.0
2018-Jun-07 20:30N 33°44' W 118°16'1 1.1
2018-Jun-07 20:00N 33°44' W 118°16'5 9.5
2018-Jun-07 19:30N 33°44' W 118°10'0 0.0
2018-Jun-07 19:00N 33°44' W 118°10'0 0.1
2018-Jun-07 18:30N 33°44' W 118°10'0 0.0
2018-Jun-07 18:00N 33°44' W 118°10'0 0.1
2018-Jun-07 17:30N 33°44' W 118°10'0 0.0
2018-Jun-07 17:00N 33°44' W 118°10'2 4.5
2018-Jun-07 16:30N 33°43' W 118°13'3 6.0
2018-Jun-07 16:00N 33°44' W 118°16'0 0.0
2018-Jun-07 15:30N 33°44' W 118°16'0 0.0
2018-Jun-07 15:00N 33°44' W 118°16'0 0.0
2018-Jun-07 14:30N 33°44' W 118°16'0 0.4
2018-Jun-07 14:00N 33°44' W 118°16'0 0.0
2018-Jun-07 02:10N 33°44' W 118°16'0 1.1
2018-Jun-07 01:59N 33°44' W 118°16'0 0.4
2018-Jun-07 01:30N 33°44' W 118°16'2 4.8
2018-Jun-07 01:00N 33°43' W 118°14'3 6.0
2018-Jun-07 00:30N 33°44' W 118°10'0 0.0
2018-Jun-07 00:00N 33°44' W 118°10'0 0.0
2018-Jun-06 23:29N 33°44' W 118°10'0 0.0
2018-Jun-06 23:00N 33°44' W 118°10'0 0.0
2018-Jun-06 22:30N 33°44' W 118°10'0 0.0
2018-Jun-06 21:58N 33°44' W 118°10'0 0.0
2018-Jun-06 21:30N 33°44' W 118°10'0 0.0
2018-Jun-06 20:59N 33°44' W 118°10'5 9.7
2018-Jun-06 20:30N 33°43' W 118°15'1 3.0
2018-Jun-06 20:00N 33°44' W 118°16'0 0.0
2018-Jun-06 19:30N 33°44' W 118°16'0 0.0
2018-Jun-06 18:59N 33°44' W 118°16'0 0.0
2018-Jun-06 18:30N 33°44' W 118°16'1 2.4
2018-Jun-06 18:00N 33°43' W 118°16'5 9.1
2018-Jun-06 17:30N 33°44' W 118°10'0 0.0
2018-Jun-06 17:01N 33°44' W 118°10'0 0.0
2018-Jun-06 16:31N 33°44' W 118°10'0 0.1
2018-Jun-06 16:00N 33°44' W 118°10'0 0.0
2018-Jun-06 15:30N 33°44' W 118°10'0 0.0
2018-Jun-06 15:00N 33°44' W 118°10'0 0.1
2018-Jun-06 14:30N 33°44' W 118°10'3 5.3
2018-Jun-06 14:00N 33°43' W 118°13'3 5.4
2018-Jun-06 13:30N 33°44' W 118°16'0 0.0
2018-Jun-06 13:00N 33°44' W 118°16'0 0.0
2018-Jun-06 12:30N 33°44' W 118°16'0 0.0
2018-Jun-06 12:00N 33°44' W 118°16'  
2018-May-31 14:43N 33°44' W 118°16'0 0.0
2018-May-31 14:30N 33°44' W 118°16'0 0.0
2018-May-31 14:00N 33°44' W 118°16'0 0.0
2018-May-31 13:30N 33°44' W 118°16'0 0.0
2018-May-31 13:00N 33°44' W 118°16'0 0.0
2018-May-31 12:29N 33°44' W 118°16'0 0.0
2018-May-31 12:00N 33°44' W 118°16'0 0.0
2018-May-31 11:30N 33°44' W 118°16'0 0.0
2018-May-31 11:00N 33°44' W 118°16'0 0.0
2018-May-31 10:30N 33°44' W 118°16'0 0.0
2018-May-31 10:00N 33°44' W 118°16'0 0.0
2018-May-31 09:30N 33°44' W 118°16'0 0.0
2018-May-31 09:00N 33°44' W 118°16'0 0.0
2018-May-31 08:29N 33°44' W 118°16'0 0.0
2018-May-31 08:00N 33°44' W 118°16'0 0.0
2018-May-31 07:30N 33°44' W 118°16'0 0.0
2018-May-31 07:00N 33°44' W 118°16'0 0.0
2018-May-31 06:30N 33°44' W 118°16'0 0.0
2018-May-31 06:00N 33°44' W 118°16'0 0.0
2018-May-31 05:29N 33°44' W 118°16'0 0.0
2018-May-31 04:58N 33°44' W 118°16'0 0.0
2018-May-31 04:30N 33°44' W 118°16'0 0.0
2018-May-31 04:00N 33°44' W 118°16'0 0.0
2018-May-31 03:30N 33°44' W 118°16'0 0.0
2018-May-31 03:00N 33°44' W 118°16'0 0.0
2018-May-31 02:30N 33°44' W 118°16'0 0.0
2018-May-31 02:00N 33°44' W 118°16'0 0.0
2018-May-31 01:31N 33°44' W 118°16'0 0.0
2018-May-31 01:00N 33°44' W 118°16'0 0.0
2018-May-31 00:30N 33°44' W 118°16'0 0.0
2018-May-31 00:00N 33°44' W 118°16'0 0.0
2018-May-30 23:30N 33°44' W 118°16'0 0.0
2018-May-30 23:00N 33°44' W 118°16'0 0.0
2018-May-30 22:30N 33°44' W 118°16'0 0.0
2018-May-30 22:00N 33°44' W 118°16'0 0.0
2018-May-30 21:30N 33°44' W 118°16'0 0.0
2018-May-30 21:00N 33°44' W 118°16'0 0.0
2018-May-30 20:31N 33°44' W 118°16'0 0.0
2018-May-30 20:00N 33°44' W 118°16'0 0.0
2018-May-30 19:30N 33°44' W 118°16'0 0.0
2018-May-30 19:00N 33°44' W 118°16'0 0.0
2018-May-30 18:30N 33°44' W 118°16'0 0.0
2018-May-30 18:00N 33°44' W 118°16'0 0.0
2018-May-30 17:30N 33°44' W 118°16'  
Track history (hours):
 
Tides and Currents Weather Stations Pressure Air Temp Water Temp Dewpoint Dewpoint Depression Visibility Wind Speed Wind Dir Waves Ship Positions

Ryan T

Owner: SO CAL SHIP SERVICES, INC, TERMINAL ISLAND, CA. More information available from US FCC via Universal Licensing System and Coast Guard Vessel Documentation Center.

Last reported at 2018-Jun-09 03:40 UTC. Time now 2018-Jun-20 15:16 UTC.
Position N 33°44' W 118°16'.
Warning: this ship's position is 11 days out of date.

Length 28 m; draft 2 m.

Type: Ship (hazmat cat B). MMSI: 367104050.

Date/timePositionNaut miles runAvg speedWind from/ knotsBaromVisibWave heightAir tempDewpointWater temp
2018-Jun-09 03:40N 33°44' W 118°16'0 2.0
2018-Jun-09 03:30N 33°44' W 118°16'0 0.0
2018-Jun-07 21:04N 33°44' W 118°16'0 0.0
2018-Jun-07 21:00N 33°44' W 118°16'0 0.0
2018-Jun-07 20:30N 33°44' W 118°16'1 1.1
2018-Jun-07 20:00N 33°44' W 118°16'5 9.5
2018-Jun-07 19:30N 33°44' W 118°10'0 0.0
2018-Jun-07 19:00N 33°44' W 118°10'0 0.1
2018-Jun-07 18:30N 33°44' W 118°10'0 0.0
2018-Jun-07 18:00N 33°44' W 118°10'0 0.1
2018-Jun-07 17:30N 33°44' W 118°10'0 0.0
2018-Jun-07 17:00N 33°44' W 118°10'2 4.5
2018-Jun-07 16:30N 33°43' W 118°13'3 6.0
2018-Jun-07 16:00N 33°44' W 118°16'0 0.0
2018-Jun-07 15:30N 33°44' W 118°16'0 0.0
2018-Jun-07 15:00N 33°44' W 118°16'0 0.0
2018-Jun-07 14:30N 33°44' W 118°16'0 0.4
2018-Jun-07 14:00N 33°44' W 118°16'0 0.0
2018-Jun-07 02:10N 33°44' W 118°16'0 1.1
2018-Jun-07 01:59N 33°44' W 118°16'0 0.4
2018-Jun-07 01:30N 33°44' W 118°16'2 4.8
2018-Jun-07 01:00N 33°43' W 118°14'3 6.0
2018-Jun-07 00:30N 33°44' W 118°10'0 0.0
2018-Jun-07 00:00N 33°44' W 118°10'0 0.0
2018-Jun-06 23:29N 33°44' W 118°10'0 0.0
2018-Jun-06 23:00N 33°44' W 118°10'0 0.0
2018-Jun-06 22:30N 33°44' W 118°10'0 0.0
2018-Jun-06 21:58N 33°44' W 118°10'0 0.0
2018-Jun-06 21:30N 33°44' W 118°10'0 0.0
2018-Jun-06 20:59N 33°44' W 118°10'5 9.7
2018-Jun-06 20:30N 33°43' W 118°15'1 3.0
2018-Jun-06 20:00N 33°44' W 118°16'0 0.0
2018-Jun-06 19:30N 33°44' W 118°16'0 0.0
2018-Jun-06 18:59N 33°44' W 118°16'0 0.0
2018-Jun-06 18:30N 33°44' W 118°16'1 2.4
2018-Jun-06 18:00N 33°43' W 118°16'5 9.1
2018-Jun-06 17:30N 33°44' W 118°10'0 0.0
2018-Jun-06 17:01N 33°44' W 118°10'0 0.0
2018-Jun-06 16:31N 33°44' W 118°10'0 0.1
2018-Jun-06 16:00N 33°44' W 118°10'0 0.0
2018-Jun-06 15:30N 33°44' W 118°10'0 0.0
2018-Jun-06 15:00N 33°44' W 118°10'0 0.1
2018-Jun-06 14:30N 33°44' W 118°10'3 5.3
2018-Jun-06 14:00N 33°43' W 118°13'3 5.4
2018-Jun-06 13:30N 33°44' W 118°16'0 0.0
2018-Jun-06 13:00N 33°44' W 118°16'0 0.0
2018-Jun-06 12:30N 33°44' W 118°16'0 0.0
2018-Jun-06 12:00N 33°44' W 118°16'  
2018-May-31 14:43N 33°44' W 118°16'0 0.0
2018-May-31 14:30N 33°44' W 118°16'0 0.0
2018-May-31 14:00N 33°44' W 118°16'0 0.0
2018-May-31 13:30N 33°44' W 118°16'0 0.0
2018-May-31 13:00N 33°44' W 118°16'0 0.0
2018-May-31 12:29N 33°44' W 118°16'0 0.0
2018-May-31 12:00N 33°44' W 118°16'0 0.0
2018-May-31 11:30N 33°44' W 118°16'0 0.0
2018-May-31 11:00N 33°44' W 118°16'0 0.0
2018-May-31 10:30N 33°44' W 118°16'0 0.0
2018-May-31 10:00N 33°44' W 118°16'0 0.0
2018-May-31 09:30N 33°44' W 118°16'0 0.0
2018-May-31 09:00N 33°44' W 118°16'0 0.0
2018-May-31 08:29N 33°44' W 118°16'0 0.0
2018-May-31 08:00N 33°44' W 118°16'0 0.0
2018-May-31 07:30N 33°44' W 118°16'0 0.0
2018-May-31 07:00N 33°44' W 118°16'0 0.0
2018-May-31 06:30N 33°44' W 118°16'0 0.0
2018-May-31 06:00N 33°44' W 118°16'0 0.0
2018-May-31 05:29N 33°44' W 118°16'0 0.0
2018-May-31 04:58N 33°44' W 118°16'0 0.0
2018-May-31 04:30N 33°44' W 118°16'0 0.0
2018-May-31 04:00N 33°44' W 118°16'0 0.0
2018-May-31 03:30N 33°44' W 118°16'0 0.0
2018-May-31 03:00N 33°44' W 118°16'0 0.0
2018-May-31 02:30N 33°44' W 118°16'0 0.0
2018-May-31 02:00N 33°44' W 118°16'0 0.0
2018-May-31 01:31N 33°44' W 118°16'0 0.0
2018-May-31 01:00N 33°44' W 118°16'0 0.0
2018-May-31 00:30N 33°44' W 118°16'0 0.0
2018-May-31 00:00N 33°44' W 118°16'0 0.0
2018-May-30 23:30N 33°44' W 118°16'0 0.0
2018-May-30 23:00N 33°44' W 118°16'0 0.0
2018-May-30 22:30N 33°44' W 118°16'0 0.0
2018-May-30 22:00N 33°44' W 118°16'0 0.0
2018-May-30 21:30N 33°44' W 118°16'0 0.0
2018-May-30 21:00N 33°44' W 118°16'0 0.0
2018-May-30 20:31N 33°44' W 118°16'0 0.0
2018-May-30 20:00N 33°44' W 118°16'0 0.0
2018-May-30 19:30N 33°44' W 118°16'0 0.0
2018-May-30 19:00N 33°44' W 118°16'0 0.0
2018-May-30 18:30N 33°44' W 118°16'0 0.0
2018-May-30 18:00N 33°44' W 118°16'0 0.0
2018-May-30 17:30N 33°44' W 118°16'  

Dump ship's entire track history